Time;durP1;ratioP1;P1;durP2;ratioP2;P2;SDS_P1;SDS_P2;PMS_P1;PMS_P2;Temp;Humidity;BMP_temperature;BMP_pressure;BME280_temperature;BME280_humidity;BME280_pressure;Samples;Min_cycle;Max_cycle;Signal;HPM_P1;HPM_P2
2023/05/22 00:00:07;;;;;;;125.05;57.97;;;;;;;16.94;100.00;99723.78;5088112;28;20024;-19
2023/05/22 00:02:37;;;;;;;208.65;95.90;;;;;;;16.87;100.00;99716.78;5088116;28;20419;-18
2023/05/22 00:05:05;;;;;;;113.13;55.05;;;;;;;16.74;100.00;99719.19;5069986;28;20414;-18
2023/05/22 00:07:30;;;;;;;;;;;;;;;16.77;100.00;99738.28;5088337;28;20028;-18
2023/05/22 00:09:56;;;;;;;109.45;51.53;;;;;;;16.77;100.00;99726.72;5088382;28;19919;-18
2023/05/22 00:12:21;;;;;;;110.55;53.00;;;;;;;16.68;100.00;99718.38;5087985;28;20016;-19
2023/05/22 00:14:47;;;;;;;69.32;36.25;;;;;;;16.84;100.00;99730.78;5087886;28;20042;-18
2023/05/22 00:17:13;;;;;;;82.55;40.22;;;;;;;16.58;100.00;99718.34;5087849;28;20487;-17
2023/05/22 00:19:39;;;;;;;49.95;26.05;;;;;;;16.71;100.00;99719.72;5087785;28;20032;-18
2023/05/22 00:22:05;;;;;;;37.55;21.70;;;;;;;16.78;100.00;99712.19;5088151;28;20042;-18
2023/05/22 00:24:30;;;;;;;25.45;15.45;;;;;;;16.77;100.00;99727.50;5087665;28;20359;-18
2023/05/22 00:26:56;;;;;;;96.93;50.70;;;;;;;16.52;100.00;99724.81;5087227;28;20024;-18
2023/05/22 00:29:22;;;;;;;111.78;58.42;;;;;;;16.40;100.00;99720.47;5086781;28;20123;-19
2023/05/22 00:31:47;;;;;;;143.65;71.05;;;;;;;16.45;100.00;99722.38;5087669;28;20036;-19
2023/05/22 00:34:13;;;;;;;121.57;58.17;;;;;;;16.24;100.00;99713.44;5087376;28;20046;-18
2023/05/22 00:36:38;;;;;;;70.57;35.83;;;;;;;16.41;100.00;99727.47;5087573;28;20063;-18
2023/05/22 00:39:04;;;;;;;91.53;44.40;;;;;;;16.47;100.00;99726.41;5087206;28;20454;-18
2023/05/22 00:41:32;;;;;;;131.48;60.28;;;;;;;16.74;100.00;99730.75;5087208;28;20027;-22
2023/05/22 00:43:59;;;;;;;175.30;83.05;;;;;;;16.71;100.00;99738.56;5087659;28;20062;-19
2023/05/22 00:46:25;;;;;;;150.88;70.32;;;;;;;16.54;100.00;99726.16;5087296;28;20441;-18
2023/05/22 00:48:51;;;;;;;161.18;76.10;;;;;;;16.42;100.00;99728.28;5087213;28;20036;-18
2023/05/22 00:51:21;;;;;;;148.05;68.32;;;;;;;16.53;100.00;99718.34;5087249;28;20024;-19
2023/05/22 00:53:48;;;;;;;69.05;33.90;;;;;;;16.97;100.00;99739.41;5087131;28;20068;-19
2023/05/22 00:56:14;;;;;;;43.65;23.85;;;;;;;16.75;100.00;99737.75;5087015;28;20067;-18
2023/05/22 00:58:40;;;;;;;26.90;15.27;;;;;;;16.78;100.00;99731.84;5087029;28;20052;-20
2023/05/22 01:01:08;;;;;;;17.33;12.13;;;;;;;16.50;100.00;99730.44;5087115;28;20024;-18
2023/05/22 01:03:36;;;;;;;18.23;11.70;;;;;;;16.38;100.00;99722.59;5087023;28;20055;-18
2023/05/22 01:06:02;;;;;;;18.50;11.23;;;;;;;16.48;100.00;99728.00;5086868;28;20039;-19
2023/05/22 01:08:27;;;;;;;23.83;15.35;;;;;;;16.75;100.00;99731.56;5086759;28;20032;-19
2023/05/22 01:11:07;;;;;;;70.13;39.10;;;;;;;16.71;100.00;99712.44;5086908;28;20064;-18
2023/05/22 01:14:22;;;;;;;108.68;56.95;;;;;;;16.83;100.00;99709.50;5086890;28;20020;-18
2023/05/22 01:17:21;;;;;;;90.40;47.45;;;;;;;16.77;100.00;99735.59;5086419;28;20020;-18
2023/05/22 01:20:13;;;;;;;81.63;43.60;;;;;;;16.78;100.00;99720.28;5086686;28;20047;-18
2023/05/22 01:23:01;;;;;;;67.05;35.63;;;;;;;16.72;100.00;99732.09;5086468;28;20024;-18
2023/05/22 01:26:04;;;;;;;70.05;40.63;;;;;;;16.80;100.00;99732.38;5086584;28;20122;-19
2023/05/22 01:28:50;;;;;;;77.55;40.67;;;;;;;16.50;100.00;99729.66;5086670;28;20036;-19
2023/05/22 01:31:18;;;;;;;75.32;39.30;;;;;;;16.49;100.00;99707.31;5086398;28;20031;-18
2023/05/22 01:34:10;;;;;;;53.67;32.42;;;;;;;16.60;100.00;99724.28;5086237;28;20016;-19
2023/05/22 01:36:37;;;;;;;51.60;28.83;;;;;;;16.53;100.00;99721.03;5081399;28;20051;-18
2023/05/22 01:39:04;;;;;;;38.72;24.20;;;;;;;16.70;100.00;99723.50;5085791;28;20024;-19
2023/05/22 01:41:31;;;;;;;36.38;20.00;;;;;;;16.57;100.00;99714.03;5086509;28;20023;-18
2023/05/22 01:43:57;;;;;;;57.08;29.48;;;;;;;16.52;100.00;99722.13;5086222;28;20020;-18
2023/05/22 01:46:27;;;;;;;73.28;41.40;;;;;;;16.67;100.00;99719.44;5086036;28;20106;-18
2023/05/22 01:48:52;;;;;;;43.58;24.13;;;;;;;16.58;100.00;99703.00;5086025;28;20028;-18
2023/05/22 01:51:28;;;;;;;29.75;16.88;;;;;;;16.62;100.00;99719.44;5086324;28;20027;-17
2023/05/22 01:54:06;;;;;;;34.00;18.95;;;;;;;16.53;100.00;99723.72;5086048;28;20127;-18
2023/05/22 01:56:47;;;;;;;26.40;15.68;;;;;;;16.44;100.00;99715.38;5086036;28;20028;-19
2023/05/22 01:59:29;;;;;;;16.40;11.05;;;;;;;16.39;100.00;99697.34;5086173;28;20028;-18
2023/05/22 02:01:59;;;;;;;15.35;11.00;;;;;;;16.57;100.00;99714.03;5085684;28;20016;-18
2023/05/22 02:04:27;;;;;;;24.35;13.65;;;;;;;16.59;100.00;99703.81;5086014;28;20048;-19
2023/05/22 02:06:53;;;;;;;27.90;15.90;;;;;;;16.52;100.00;99711.34;5085578;28;20025;-18
2023/05/22 02:09:22;;;;;;;17.30;12.30;;;;;;;16.39;100.00;99707.28;5085804;28;20035;-18
2023/05/22 02:11:48;;;;;;;17.48;11.90;;;;;;;16.59;100.00;99717.25;5085577;28;20419;-18
2023/05/22 02:14:14;;;;;;;20.20;12.55;;;;;;;16.45;100.00;99712.41;5085902;28;20020;-18
2023/05/22 02:16:41;;;;;;;23.77;14.43;;;;;;;16.36;100.00;99708.59;5085503;28;20063;-19
2023/05/22 02:19:06;;;;;;;24.30;16.30;;;;;;;16.52;100.00;99712.16;5085550;28;20035;-18
2023/05/22 02:21:35;;;;;;;24.13;14.38;;;;;;;16.60;100.00;99718.91;5085688;28;20032;-22
2023/05/22 02:24:01;;;;;;;22.50;14.40;;;;;;;16.51;100.00;99723.16;5085765;28;20040;-19
2023/05/22 02:26:27;;;;;;;22.35;13.80;;;;;;;16.47;100.00;99725.63;5085601;28;20039;-18
2023/05/22 02:28:52;;;;;;;16.58;11.75;;;;;;;16.33;100.00;99714.53;5085627;28;20032;-19
2023/05/22 02:31:18;;;;;;;17.92;11.35;;;;;;;16.40;100.00;99725.84;5085576;28;20426;-18
2023/05/22 02:33:43;;;;;;;21.00;12.35;;;;;;;16.67;100.00;99725.66;5085455;28;20529;-18
2023/05/22 02:36:11;;;;;;;18.13;11.52;;;;;;;16.26;100.00;99730.09;5085402;28;20028;-18
2023/05/22 02:38:37;;;;;;;18.90;11.85;;;;;;;16.22;100.00;99723.63;5085523;28;20063;-18
2023/05/22 02:41:03;;;;;;;22.23;13.10;;;;;;;16.04;100.00;99733.03;5085191;28;20078;-18
2023/05/22 02:43:28;;;;;;;21.10;11.93;;;;;;;16.25;100.00;99725.81;5085596;28;20058;-19
2023/05/22 02:45:54;;;;;;;16.98;11.38;;;;;;;16.46;100.00;99724.78;5085306;28;20487;-17
2023/05/22 02:48:19;;;;;;;17.30;11.30;;;;;;;16.45;100.00;99725.88;5085514;28;20032;-19
2023/05/22 02:50:47;;;;;;;14.98;11.02;;;;;;;16.18;100.00;99727.94;5086149;28;20110;-20
2023/05/22 02:53:14;;;;;;;14.68;10.38;;;;;;;16.38;100.00;99722.59;5089283;28;20052;-18
2023/05/22 02:55:40;;;;;;;16.67;10.13;;;;;;;16.43;100.00;99721.84;5089325;28;20040;-18
2023/05/22 02:58:10;;;;;;;16.80;10.77;;;;;;;16.26;100.00;99725.56;5089469;28;20105;-18
2023/05/22 03:00:38;;;;;;;15.77;9.88;;;;;;;16.11;100.00;99705.88;5089549;28;20032;-18
2023/05/22 03:03:04;;;;;;;15.18;10.27;;;;;;;16.44;100.00;99726.94;5089143;28;20024;-19
2023/05/22 03:05:30;;;;;;;17.75;10.52;;;;;;;16.54;100.00;99718.06;5089420;28;20020;-19
2023/05/22 03:07:56;;;;;;;15.77;10.43;;;;;;;16.56;100.00;99715.13;5089334;28;20640;-19
2023/05/22 03:10:23;;;;;;;24.92;17.17;;;;;;;16.44;100.00;99716.16;5089387;28;20028;-18
2023/05/22 03:12:50;;;;;;;87.82;47.92;;;;;;;16.51;100.00;99715.94;5088794;28;20596;-19
2023/05/22 03:15:16;;;;;;;31.33;20.02;;;;;;;16.35;100.00;99698.13;5088949;28;20028;-18
2023/05/22 03:17:42;;;;;;;24.42;14.80;;;;;;;16.53;100.00;99713.78;5089066;28;20020;-18
2023/05/22 03:20:08;;;;;;;30.33;18.23;;;;;;;16.56;100.00;99723.19;5088943;28;20371;-18
2023/05/22 03:22:33;;;;;;;19.02;12.43;;;;;;;16.51;100.00;99710.53;5088903;28;20527;-19
2023/05/22 03:24:58;;;;;;;17.23;11.15;;;;;;;16.42;100.00;99714.81;5089183;28;20107;-20
2023/05/22 03:27:24;;;;;;;13.75;9.43;;;;;;;16.18;100.00;99720.69;5089033;28;20031;-18
2023/05/22 03:29:50;;;;;;;17.27;9.55;;;;;;;16.41;100.00;99722.09;5088628;28;20020;-17
2023/05/22 03:32:16;;;;;;;15.65;9.40;;;;;;;16.25;100.00;99717.75;5088713;28;20031;-18
2023/05/22 03:34:42;;;;;;;14.95;9.65;;;;;;;16.38;100.00;99717.22;5088490;28;20034;-17
2023/05/22 03:37:08;;;;;;;14.20;9.32;;;;;;;16.46;100.00;99708.63;5088607;28;20473;-18
2023/05/22 03:39:34;;;;;;;13.55;8.95;;;;;;;16.44;100.00;99700.00;5088608;28;20039;-20
2023/05/22 03:42:00;;;;;;;12.82;8.32;;;;;;;16.58;100.00;99721.03;5088781;28;20024;-18
2023/05/22 03:44:25;;;;;;;13.15;8.23;;;;;;;16.44;100.00;99704.59;5088362;28;20036;-18
2023/05/22 03:46:51;;;;;;;15.25;9.23;;;;;;;16.63;100.00;99702.19;5088528;28;20020;-18
2023/05/22 03:49:16;;;;;;;14.95;8.18;;;;;;;16.61;100.00;99709.72;5088687;28;20133;-18
2023/05/22 03:51:42;;;;;;;13.60;8.88;;;;;;;16.59;100.00;99717.25;5088511;28;20859;-18
2023/05/22 03:54:07;;;;;;;16.25;8.35;;;;;;;16.84;100.00;99717.34;5088350;28;20040;-18
2023/05/22 03:56:33;;;;;;;15.18;9.38;;;;;;;16.79;100.00;99716.47;5088380;28;20032;-22
2023/05/22 03:58:59;;;;;;;13.63;8.98;;;;;;;16.92;100.00;99721.38;5088439;28;20024;-19
2023/05/22 04:01:25;;;;;;;15.65;10.07;;;;;;;17.03;100.00;99716.78;5088399;28;20028;-17
2023/05/22 04:03:51;;;;;;;14.57;9.65;;;;;;;17.07;100.00;99723.25;5087987;28;20415;-20
2023/05/22 04:06:20;;;;;;;13.57;9.70;;;;;;;16.91;100.00;99724.34;5088262;28;20024;-18
2023/05/22 04:08:46;;;;;;;18.30;12.27;;;;;;;16.92;100.00;99723.25;5088492;28;20111;-24
2023/05/22 04:11:14;;;;;;;28.25;18.95;;;;;;;16.65;100.00;99726.97;5088179;28;20047;-17
2023/05/22 04:13:43;;;;;;;58.78;32.97;;;;;;;16.99;100.00;99726.50;5087969;28;20038;-19
2023/05/22 04:16:09;;;;;;;58.45;32.95;;;;;;;16.81;100.00;99730.53;5087800;28;20028;-20
2023/05/22 04:18:34;;;;;;;47.03;28.05;;;;;;;16.93;100.00;99719.50;5087985;28;20104;-19
2023/05/22 04:21:00;;;;;;;29.23;19.17;;;;;;;16.92;100.00;99725.94;5088229;28;20051;-18
2023/05/22 04:23:25;;;;;;;21.92;14.48;;;;;;;16.75;100.00;99716.19;5087931;28;20403;-18
2023/05/22 04:25:51;;;;;;;17.30;11.90;;;;;;;16.97;100.00;99726.75;5087810;28;20031;-18
2023/05/22 04:28:17;;;;;;;13.02;9.80;;;;;;;16.73;100.00;99712.16;5087677;28;20024;-18
2023/05/22 04:30:43;;;;;;;12.63;8.80;;;;;;;16.88;100.00;99712.22;5087802;28;20020;-18
2023/05/22 04:33:09;;;;;;;15.13;9.05;;;;;;;17.03;100.00;99727.56;5087523;28;20028;-19
2023/05/22 04:35:34;;;;;;;12.10;8.63;;;;;;;17.12;100.00;99720.56;5087468;28;20035;-25
2023/05/22 04:38:05;;;;;;;12.02;8.40;;;;;;;17.24;100.00;99729.19;5087676;28;20024;-19
2023/05/22 04:40:32;;;;;;;13.82;8.85;;;;;;;17.30;100.00;99732.66;5087619;28;20035;-18
2023/05/22 04:42:59;;;;;;;14.57;9.82;;;;;;;17.39;100.00;99735.63;5087443;28;20422;-18
2023/05/22 04:45:29;;;;;;;16.33;8.90;;;;;;;17.21;100.00;99728.91;5087234;28;20038;-17
2023/05/22 04:47:55;;;;;;;25.63;15.48;;;;;;;17.42;100.00;99737.78;5087584;28;20028;-18
2023/05/22 04:50:20;;;;;;;40.85;23.85;;;;;;;17.59;100.00;99741.00;5087321;28;20813;-18
2023/05/22 04:52:46;;;;;;;30.17;18.85;;;;;;;17.56;100.00;99741.53;5087079;28;20044;-18
2023/05/22 04:55:12;;;;;;;19.40;12.32;;;;;;;17.54;100.00;99732.91;5087093;28;20038;-18
2023/05/22 04:57:39;;;;;;;53.42;33.13;;;;;;;17.44;100.00;99732.91;5087284;28;20107;-19
2023/05/22 05:00:06;;;;;;;52.75;30.30;;;;;;;17.64;100.00;99757.13;5084025;28;20028;-22
2023/05/22 05:02:31;;;;;;;27.13;15.15;;;;;;;17.91;100.00;99752.53;5066920;28;20176;-23
2023/05/22 05:04:57;;;;;;;24.95;14.65;;;;;;;17.94;100.00;99751.94;5066619;28;20044;-18
2023/05/22 05:07:22;;;;;;;18.23;11.82;;;;;;;17.99;100.00;99755.44;5066568;28;20415;-18
2023/05/22 05:09:48;;;;;;;14.63;8.38;;;;;;;17.95;100.00;99759.78;5066854;28;20024;-18
2023/05/22 05:12:14;;;;;;;10.85;8.23;;;;;;;17.99;100.00;99754.66;5066809;28;20032;-18
2023/05/22 05:14:39;;;;;;;12.02;7.97;;;;;;;18.13;100.00;99755.66;5065994;28;20020;-19
2023/05/22 05:17:05;;;;;;;14.63;8.30;;;;;;;18.13;100.00;99760.25;5066599;28;20028;-19
2023/05/22 05:19:31;;;;;;;13.82;8.80;;;;;;;18.23;100.00;99760.22;5066444;28;20024;-18
2023/05/22 05:21:56;;;;;;;12.98;8.50;;;;;;;18.25;100.00;99763.44;5066463;28;20044;-18
2023/05/22 05:24:21;;;;;;;12.90;8.57;;;;;;;18.14;100.00;99773.47;5066249;28;20115;-19
2023/05/22 05:26:49;;;;;;;12.13;8.18;;;;;;;18.17;100.00;99747.84;5066398;28;20028;-19
2023/05/22 05:29:14;;;;;;;15.27;8.23;;;;;;;18.44;100.00;99766.31;5066168;28;20017;-18
2023/05/22 05:31:40;;;;;;;13.20;9.23;;;;;;;18.66;100.00;99769.44;5066010;28;20275;-18
2023/05/22 05:34:05;;;;;;;12.40;8.52;;;;;;;18.73;100.00;99771.00;5066345;28;20024;-22
2023/05/22 05:36:30;;;;;;;13.10;8.93;;;;;;;18.77;100.00;99770.16;5066241;28;20024;-18
2023/05/22 05:38:57;;;;;;;12.57;8.60;;;;;;;18.73;100.00;99762.91;5066168;28;20029;-18
2023/05/22 05:41:23;;;;;;;11.27;8.13;;;;;;;18.86;100.00;99773.13;5065969;28;20429;-18
2023/05/22 05:43:51;;;;;;;13.07;9.18;;;;;;;18.96;100.00;99778.47;5065821;28;20028;-20
2023/05/22 05:46:16;;;;;;;13.32;8.88;;;;;;;18.98;100.00;99775.44;5065845;28;20056;-18
2023/05/22 05:48:42;;;;;;;14.40;9.13;;;;;;;19.07;100.00;99773.78;5065632;28;20404;-18
2023/05/22 05:51:08;;;;;;;15.02;9.38;;;;;;;19.04;100.00;99785.13;5065536;28;20036;-18
2023/05/22 05:53:35;;;;;;;13.82;9.65;;;;;;;19.01;100.00;99783.00;5065712;28;20498;-18
2023/05/22 05:56:01;;;;;;;12.32;9.90;;;;;;;19.22;100.00;99791.75;5065564;28;20470;-18
2023/05/22 05:58:27;;;;;;;17.15;8.98;;;;;;;19.28;97.95;99796.03;5065504;28;20517;-18
2023/05/22 06:00:52;;;;;;;14.93;9.00;;;;;;;19.26;98.76;99793.59;5065556;28;20029;-18
2023/05/22 06:03:18;;;;;;;13.50;9.32;;;;;;;19.24;99.76;99801.19;5065586;28;20021;-18
2023/05/22 06:05:44;;;;;;;16.25;9.93;;;;;;;19.38;96.66;99808.66;5065690;28;20028;-18
2023/05/22 06:08:12;;;;;;;35.80;21.63;;;;;;;19.41;97.26;99789.16;5065624;28;20021;-18
2023/05/22 06:10:37;;;;;;;19.85;12.27;;;;;;;19.66;96.17;99802.44;5065951;28;20067;-19
2023/05/22 06:13:03;;;;;;;13.18;8.88;;;;;;;19.79;94.81;99811.03;5065794;28;20717;-18
2023/05/22 06:15:29;;;;;;;12.40;9.07;;;;;;;19.86;94.75;99814.22;5065616;28;20028;-18
2023/05/22 06:17:55;;;;;;;14.10;10.18;;;;;;;19.91;94.42;99816.03;5065585;28;20032;-18
2023/05/22 06:20:20;;;;;;;14.40;9.10;;;;;;;19.80;92.19;99818.06;5065245;28;20416;-18
2023/05/22 06:22:46;;;;;;;12.63;8.00;;;;;;;19.67;91.50;99809.47;5065450;28;20024;-18
2023/05/22 06:25:11;;;;;;;13.82;9.27;;;;;;;20.04;93.08;99813.47;5064363;28;20230;-18
2023/05/22 06:27:37;;;;;;;13.07;8.07;;;;;;;20.26;87.61;99814.81;5065145;28;20029;-22
2023/05/22 06:30:02;;;;;;;11.82;8.98;;;;;;;20.46;86.45;99817.28;5065455;28;20027;-19
2023/05/22 06:32:28;;;;;;;11.90;7.50;;;;;;;20.55;82.47;99820.13;5065160;28;20107;-18
2023/05/22 06:34:53;;;;;;;11.32;7.47;;;;;;;20.24;81.50;99817.00;5065741;28;20024;-18
2023/05/22 06:37:19;;;;;;;11.55;7.50;;;;;;;20.34;83.94;99819.59;5065314;28;20038;-19
2023/05/22 06:39:44;;;;;;;13.32;8.48;;;;;;;20.58;83.32;99813.34;5065135;28;20461;-18
2023/05/22 06:42:10;;;;;;;15.07;7.78;;;;;;;20.92;79.83;99815.06;5065128;28;20039;-18
2023/05/22 06:44:35;;;;;;;20.30;10.98;;;;;;;21.16;76.01;99820.38;5065481;28;20037;-18
2023/05/22 06:47:00;;;;;;;10.98;6.88;;;;;;;21.03;73.03;99816.53;5065219;28;20401;-20
2023/05/22 06:49:26;;;;;;;11.73;7.30;;;;;;;21.07;73.47;99822.97;5065304;28;20032;-19
2023/05/22 06:51:51;;;;;;;10.52;5.68;;;;;;;21.00;71.01;99804.38;5064949;28;20464;-18
2023/05/22 06:54:18;;;;;;;9.02;6.32;;;;;;;21.11;75.01;99826.72;5065128;28;20095;-19
2023/05/22 06:56:44;;;;;;;11.02;6.55;;;;;;;21.48;75.60;99824.25;5064818;28;20034;-18
2023/05/22 06:59:12;;;;;;;10.60;6.63;;;;;;;21.42;72.61;99826.22;5064998;28;20462;-17
2023/05/22 07:01:38;;;;;;;13.13;7.03;;;;;;;21.44;69.38;99826.75;5064891;28;20029;-19
2023/05/22 07:04:04;;;;;;;12.43;6.65;;;;;;;21.23;70.30;99821.63;5065285;28;20090;-19
2023/05/22 07:06:37;;;;;;;10.07;6.22;;;;;;;21.25;74.22;99824.06;5064759;28;20036;-18
2023/05/22 07:09:04;;;;;;;13.57;6.35;;;;;;;21.56;72.05;99813.53;5065120;28;20422;-18
2023/05/22 07:11:29;;;;;;;17.38;9.00;;;;;;;21.64;73.55;99831.03;5064850;28;20036;-19
2023/05/22 07:13:55;;;;;;;12.52;7.72;;;;;;;21.67;71.39;99820.38;5064933;28;20032;-18
2023/05/22 07:16:22;;;;;;;10.23;6.07;;;;;;;21.85;67.06;99834.16;5065031;28;20043;-18
2023/05/22 07:18:47;;;;;;;10.48;5.30;;;;;;;21.81;68.34;99831.25;5064645;28;20033;-19
2023/05/22 07:21:12;;;;;;;8.55;4.88;;;;;;;21.87;66.08;99824.63;5065126;28;20036;-18
2023/05/22 07:23:38;;;;;;;10.35;5.95;;;;;;;22.20;66.60;99834.59;5064908;28;20024;-19
2023/05/22 07:26:03;;;;;;;7.70;5.40;;;;;;;22.19;64.76;99831.09;5064949;28;20505;-18
2023/05/22 07:28:32;;;;;;;8.82;5.30;;;;;;;22.06;62.57;99821.00;5064868;28;20021;-20
2023/05/22 07:30:57;;;;;;;10.32;5.55;;;;;;;22.45;65.14;99828.69;5064442;28;20028;-18
2023/05/22 07:33:24;;;;;;;9.48;5.15;;;;;;;22.62;64.22;99825.34;5064789;28;20021;-18
2023/05/22 07:35:50;;;;;;;10.70;5.35;;;;;;;22.66;63.93;99839.13;5064465;28;20051;-19
2023/05/22 07:38:16;;;;;;;8.48;4.97;;;;;;;22.63;59.95;99834.28;5067469;28;20028;-18
2023/05/22 07:40:41;;;;;;;11.50;5.60;;;;;;;22.50;60.92;99833.19;5068106;28;20419;-18
2023/05/22 07:43:07;;;;;;;7.82;5.13;;;;;;;22.84;59.88;99832.72;5068462;28;20016;-18
2023/05/22 07:45:32;;;;;;;9.93;5.32;;;;;;;23.02;59.95;99830.19;5068580;28;20040;-18
2023/05/22 07:47:58;;;;;;;9.13;5.10;;;;;;;23.36;58.47;99832.34;5068362;28;20033;-18
2023/05/22 07:50:25;;;;;;;9.95;6.22;;;;;;;23.41;57.78;99834.13;5068230;28;20422;-18
2023/05/22 07:52:51;;;;;;;10.57;5.57;;;;;;;23.77;53.21;99827.81;5068185;28;20068;-18
2023/05/22 07:55:16;;;;;;;9.73;5.13;;;;;;;23.83;54.83;99832.00;5067983;28;20032;-18
2023/05/22 07:57:42;;;;;;;11.63;5.72;;;;;;;24.14;51.57;99821.06;5068130;28;20392;-19
2023/05/22 08:00:08;;;;;;;11.80;6.07;;;;;;;24.13;54.50;99821.38;5068211;28;20479;-18
2023/05/22 08:02:35;;;;;;;8.88;5.50;;;;;;;24.42;51.50;99826.28;5067703;28;20024;-18
2023/05/22 08:05:00;;;;;;;9.40;5.63;;;;;;;23.95;50.60;99824.06;5068129;28;20028;-20
2023/05/22 08:07:26;;;;;;;10.40;5.30;;;;;;;23.70;53.04;99822.81;5067881;28;20035;-21
2023/05/22 08:09:51;;;;;;;9.98;5.07;;;;;;;23.48;54.48;99810.03;5067623;28;20028;-18
2023/05/22 08:12:17;;;;;;;9.68;4.60;;;;;;;23.37;54.20;99819.53;5067637;28;20249;-19
2023/05/22 08:14:42;;;;;;;7.97;4.93;;;;;;;23.48;52.48;99812.75;5067968;28;20468;-20
2023/05/22 08:17:08;;;;;;;9.10;5.07;;;;;;;23.51;51.68;99823.00;5067551;28;20036;-18
2023/05/22 08:19:33;;;;;;;11.10;4.90;;;;;;;23.04;52.82;99817.88;5067932;28;20111;-18
2023/05/22 08:21:59;;;;;;;7.90;4.50;;;;;;;23.24;51.21;99811.13;5067830;28;20633;-18
2023/05/22 08:24:27;;;;;;;9.35;4.70;;;;;;;23.49;54.44;99814.34;5067628;28;20074;-18
2023/05/22 08:26:53;;;;;;;12.05;6.65;;;;;;;23.29;51.80;99823.00;5067313;28;20498;-18
2023/05/22 08:29:19;;;;;;;7.38;4.18;;;;;;;23.30;49.48;99819.19;5067430;28;20044;-18
2023/05/22 08:31:45;;;;;;;8.18;4.60;;;;;;;23.15;50.93;99828.50;5067778;28;20024;-18
2023/05/22 08:34:10;;;;;;;6.60;3.90;;;;;;;23.30;51.13;99830.06;5067392;28;20036;-19
2023/05/22 08:36:36;;;;;;;7.70;4.28;;;;;;;23.42;48.72;99828.38;5067708;28;20688;-21
2023/05/22 08:39:02;;;;;;;8.98;5.07;;;;;;;23.98;50.82;99820.69;5067435;28;20032;-18
2023/05/22 08:41:28;;;;;;;10.05;4.53;;;;;;;24.03;47.31;99831.47;5067372;28;20036;-18
2023/05/22 08:43:53;;;;;;;10.63;4.05;;;;;;;24.60;48.45;99832.59;5067324;28;20032;-18
2023/05/22 08:46:25;;;;;;;11.52;5.00;;;;;;;24.71;45.66;99833.91;5067328;28;20039;-18
2023/05/22 08:48:51;;;;;;;10.18;5.05;;;;;;;24.74;45.53;99835.19;5066317;28;20028;-18
2023/05/22 08:51:18;;;;;;;8.80;4.20;;;;;;;24.38;47.01;99831.56;5067164;28;20045;-19
2023/05/22 08:53:45;;;;;;;9.55;4.53;;;;;;;24.39;47.82;99826.91;5067220;28;20102;-18
2023/05/22 08:56:11;;;;;;;8.02;3.95;;;;;;;24.39;50.51;99816.81;5066894;28;20127;-19
2023/05/22 08:58:37;;;;;;;7.10;4.30;;;;;;;24.28;48.03;99818.25;5067100;28;20123;-21
2023/05/22 09:01:04;;;;;;;9.30;4.18;;;;;;;24.13;50.34;99824.94;5067006;28;20042;-18
2023/05/22 09:03:31;;;;;;;12.27;4.47;;;;;;;24.24;50.66;99807.16;5066832;28;20016;-19
2023/05/22 09:05:58;;;;;;;9.82;4.30;;;;;;;24.07;51.00;99809.84;5066922;28;20032;-19
2023/05/22 09:08:23;;;;;;;6.80;4.05;;;;;;;23.99;49.63;99814.13;5066794;28;20778;-18
2023/05/22 09:10:49;;;;;;;7.63;4.40;;;;;;;24.00;51.06;99799.38;5066714;28;20017;-18
2023/05/22 09:13:30;;;;;;;8.30;4.55;;;;;;;24.15;50.20;99813.69;5066615;28;20046;-18
2023/05/22 09:16:10;;;;;;;7.57;3.95;;;;;;;23.90;48.79;99805.13;5066546;28;20108;-19
2023/05/22 09:18:40;;;;;;;9.13;4.95;;;;;;;24.06;49.99;99813.69;5066796;28;20039;-18
2023/05/22 09:21:07;;;;;;;9.55;4.50;;;;;;;24.08;51.42;99810.66;5066416;28;20036;-19
2023/05/22 09:23:32;;;;;;;8.65;4.80;;;;;;;24.06;50.94;99803.56;5066789;28;20032;-18
2023/05/22 09:25:59;;;;;;;8.80;4.55;;;;;;;23.96;51.32;99792.97;5066378;28;20029;-18
2023/05/22 09:28:25;;;;;;;7.30;3.88;;;;;;;24.43;49.12;99812.31;5066179;28;20029;-19
2023/05/22 09:30:55;;;;;;;7.18;3.58;;;;;;;24.65;49.44;99808.72;5066250;28;20051;-18
2023/05/22 09:33:22;;;;;;;6.95;4.25;;;;;;;24.78;48.52;99796.03;5066179;28;20047;-18
2023/05/22 09:35:51;;;;;;;8.88;4.78;;;;;;;24.86;47.74;99810.81;5066300;28;20139;-18
2023/05/22 09:38:16;;;;;;;9.60;4.05;;;;;;;24.99;49.51;99798.94;5066132;28;20044;-18
2023/05/22 09:40:42;;;;;;;8.43;3.80;;;;;;;24.86;47.53;99797.97;5066257;28;20024;-18
2023/05/22 09:43:16;;;;;;;8.27;3.95;;;;;;;25.18;44.47;99804.06;5066082;28;20486;-22
2023/05/22 09:45:41;;;;;;;7.70;3.38;;;;;;;24.75;43.09;99802.16;5066066;28;20028;-18
2023/05/22 09:48:08;;;;;;;9.85;4.07;;;;;;;25.03;45.09;99802.63;5066151;28;20047;-18
2023/05/22 09:50:35;;;;;;;9.33;4.00;;;;;;;25.03;48.46;99789.00;5066207;28;20033;-18
2023/05/22 09:53:02;;;;;;;10.60;4.10;;;;;;;24.44;46.90;99800.31;5065684;28;20332;-18
2023/05/22 09:55:28;;;;;;;6.75;4.05;;;;;;;24.41;46.20;99800.94;5065687;28;20062;-19
2023/05/22 09:57:55;;;;;;;8.57;3.58;;;;;;;24.86;43.53;99803.41;5065480;28;20499;-18
2023/05/22 10:00:22;;;;;;;8.35;3.30;;;;;;;25.44;42.30;99795.06;5065487;28;20036;-19
2023/05/22 10:03:04;;;;;;;5.05;3.13;;;;;;;25.84;38.29;99792.00;5065821;28;20591;-19
2023/05/22 10:05:31;;;;;;;7.45;3.08;;;;;;;26.35;40.03;99790.16;5065418;28;20461;-18
2023/05/22 10:08:03;;;;;;;5.50;2.88;;;;;;;25.80;42.15;99782.88;5065712;28;20029;-19
2023/05/22 10:10:29;;;;;;;7.75;3.38;;;;;;;25.70;40.65;99796.88;5065668;28;20024;-18
2023/05/22 10:13:02;;;;;;;8.40;3.80;;;;;;;25.53;41.56;99795.03;5064624;28;20138;-19
2023/05/22 10:15:28;;;;;;;9.15;3.88;;;;;;;25.60;42.74;99782.47;5064045;28;20693;-19
2023/05/22 10:17:54;;;;;;;7.65;3.65;;;;;;;25.29;43.40;99787.38;5065607;28;20465;-19
2023/05/22 10:20:20;;;;;;;7.60;3.40;;;;;;;25.56;40.09;99776.06;5065229;28;20036;-19
2023/05/22 10:22:47;;;;;;;7.18;3.60;;;;;;;25.89;41.50;99778.19;5065327;28;20028;-20
2023/05/22 10:25:13;;;;;;;7.65;3.90;;;;;;;25.82;39.33;99777.88;5064962;28;20438;-18
2023/05/22 10:27:39;;;;;;;6.07;3.35;;;;;;;26.38;41.46;99778.56;5065547;28;20511;-19
2023/05/22 10:30:26;;;;;;;6.30;3.40;;;;;;;26.48;40.05;99782.03;5065395;28;20036;-20
2023/05/22 10:33:06;;;;;;;7.97;3.45;;;;;;;26.49;40.74;99767.25;5065561;28;20445;-18
2023/05/22 10:35:46;;;;;;;6.38;3.42;;;;;;;26.91;36.68;99761.75;5065104;28;20484;-19
2023/05/22 10:38:30;;;;;;;8.35;3.28;;;;;;;27.01;37.95;99775.03;5065343;28;20032;-18
2023/05/22 10:40:56;;;;;;;6.35;3.65;;;;;;;26.39;36.82;99773.91;5065555;28;20032;-18
2023/05/22 10:43:22;;;;;;;7.85;3.20;;;;;;;27.07;36.15;99773.69;5065430;28;20036;-18
2023/05/22 10:45:47;;;;;;;6.22;3.08;;;;;;;26.29;35.58;99764.16;5065225;28;20467;-18
2023/05/22 10:48:13;;;;;;;8.50;3.35;;;;;;;26.60;35.25;99763.81;5065020;28;20038;-18
2023/05/22 10:50:49;;;;;;;6.63;3.10;;;;;;;27.39;35.33;99771.31;5065143;28;20040;-18
2023/05/22 10:53:25;;;;;;;11.23;3.30;;;;;;;27.82;33.71;99756.28;5064837;28;20084;-18
2023/05/22 10:55:52;;;;;;;8.13;3.47;;;;;;;27.91;35.21;99762.50;5064933;28;20028;-18
2023/05/22 10:58:36;;;;;;;9.25;3.13;;;;;;;27.82;35.19;99745.31;5065035;28;20028;-19
2023/05/22 11:01:12;;;;;;;7.80;3.25;;;;;;;28.17;34.54;99742.13;5064961;28;20098;-20
2023/05/22 11:03:59;;;;;;;5.43;2.78;;;;;;;28.11;32.75;99751.72;5065034;28;20021;-24
2023/05/22 11:06:45;;;;;;;6.63;3.10;;;;;;;28.08;34.84;99725.81;5065083;28;20043;-19
2023/05/22 11:09:27;;;;;;;6.32;2.85;;;;;;;28.09;33.26;99738.38;5065212;28;20036;-18
2023/05/22 11:12:23;;;;;;;5.13;3.10;;;;;;;28.02;33.41;99730.72;5065707;28;20027;-18
2023/05/22 11:15:06;;;;;;;6.72;3.60;;;;;;;27.95;36.14;99716.00;5068843;28;20028;-18
2023/05/22 11:17:41;;;;;;;7.88;3.17;;;;;;;27.99;34.28;99715.00;5068491;28;20041;-19
2023/05/22 11:20:21;;;;;;;5.93;2.95;;;;;;;27.94;34.11;99720.69;5069115;28;20044;-18
2023/05/22 11:22:50;;;;;;;7.40;3.00;;;;;;;27.36;33.39;99722.69;5068467;28;20024;-17